TimeCDT,TemperatureF,Dew PointF,Humidity,Sea Level PressureIn,VisibilityMPH,Wind Direction,Wind SpeedMPH,Gust SpeedMPH,PrecipitationIn,Events,Conditions,WindDirDegrees,DateUTC
12:53 AM,39.9,37.0,89,30.25,10.0,West,3.5,-,N/A,,Clear,280,2012-10-29 05:53:00
1:53 AM,37.9,36.0,93,30.27,10.0,Calm,Calm,-,N/A,,Clear,0,2012-10-29 06:53:00
2:53 AM,37.9,35.1,89,30.27,10.0,Calm,Calm,-,N/A,,Clear,0,2012-10-29 07:53:00
3:53 AM,36.0,33.1,89,30.26,10.0,Calm,Calm,-,N/A,,Clear,0,2012-10-29 08:53:00
4:18 AM,37.4,33.8,87,30.27,10.0,Calm,Calm,-,N/A,,Partly Cloudy,0,2012-10-29 09:18:00
4:53 AM,37.0,34.0,89,30.27,10.0,Calm,Calm,-,N/A,,Clear,0,2012-10-29 09:53:00
5:53 AM,35.1,32.0,89,30.28,10.0,Calm,Calm,-,N/A,,Clear,0,2012-10-29 10:53:00
6:53 AM,34.0,30.9,89,30.28,10.0,Calm,Calm,-,N/A,,Clear,0,2012-10-29 11:53:00
7:53 AM,34.0,30.9,89,30.30,10.0,Calm,Calm,-,N/A,,Clear,0,2012-10-29 12:53:00
8:53 AM,41.0,34.0,76,30.33,10.0,Calm,Calm,-,N/A,,Clear,0,2012-10-29 13:53:00
9:53 AM,46.9,35.1,63,30.33,10.0,Calm,Calm,-,N/A,,Clear,0,2012-10-29 14:53:00
10:53 AM,52.0,32.0,47,30.34,10.0,East,8.1,-,N/A,,Clear,90,2012-10-29 15:53:00
12:53 PM,57.0,30.9,37,30.28,10.0,Variable,3.5,-,N/A,,Clear,0,2012-10-29 17:53:00
1:53 PM,59.0,28.9,32,30.25,10.0,NNW,5.8,-,N/A,,Clear,340,2012-10-29 18:53:00
2:53 PM,61.0,28.0,29,30.21,10.0,Calm,Calm,-,N/A,,Clear,0,2012-10-29 19:53:00
3:53 PM,61.0,30.0,31,30.19,10.0,Variable,3.5,-,N/A,,Clear,0,2012-10-29 20:53:00
4:53 PM,60.1,30.0,32,30.18,10.0,Variable,3.5,-,N/A,,Clear,0,2012-10-29 21:53:00
5:53 PM,57.9,28.9,33,30.17,10.0,WNW,4.6,-,N/A,,Clear,300,2012-10-29 22:53:00
6:53 PM,53.1,34.0,48,30.17,10.0,Calm,Calm,-,N/A,,Clear,0,2012-10-29 23:53:00
7:53 PM,46.9,36.0,66,30.17,10.0,Calm,Calm,-,N/A,,Clear,0,2012-10-30 00:53:00
8:53 PM,45.0,37.0,74,30.17,10.0,NE,4.6,-,N/A,,Clear,50,2012-10-30 01:53:00
9:53 PM,43.0,36.0,76,30.17,9.0,Calm,Calm,-,N/A,,Clear,0,2012-10-30 02:53:00
10:53 PM,41.0,36.0,82,30.17,9.0,NW,3.5,-,N/A,,Clear,320,2012-10-30 03:53:00
11:53 PM,39.9,36.0,86,30.15,10.0,Calm,Calm,-,N/A,,Clear,0,2012-10-30 04:53:00